sensor_id;sensor_type;location;lat;lon;timestamp;P1;durP1;ratioP1;P2;durP2;ratioP2
19434;SDS011;9853;50.848;4.108;2023-04-25T00:01:21;19.10;;;4.70;;
19434;SDS011;9853;50.848;4.108;2023-04-25T00:03:22;16.67;;;4.45;;
19434;SDS011;9853;50.848;4.108;2023-04-25T00:05:25;16.90;;;4.22;;
19434;SDS011;9853;50.848;4.108;2023-04-25T00:07:26;16.42;;;4.30;;
19434;SDS011;9853;50.848;4.108;2023-04-25T00:09:27;16.52;;;4.40;;
19434;SDS011;9853;50.848;4.108;2023-04-25T00:11:29;20.35;;;4.07;;
19434;SDS011;9853;50.848;4.108;2023-04-25T00:13:31;21.17;;;4.68;;
19434;SDS011;9853;50.848;4.108;2023-04-25T00:15:32;21.52;;;4.72;;
19434;SDS011;9853;50.848;4.108;2023-04-25T00:17:33;21.00;;;4.07;;
19434;SDS011;9853;50.848;4.108;2023-04-25T00:19:34;20.73;;;4.28;;
19434;SDS011;9853;50.848;4.108;2023-04-25T00:21:35;19.77;;;4.30;;
19434;SDS011;9853;50.848;4.108;2023-04-25T00:23:40;17.40;;;4.30;;
19434;SDS011;9853;50.848;4.108;2023-04-25T00:25:41;15.23;;;3.63;;
19434;SDS011;9853;50.848;4.108;2023-04-25T00:27:43;17.42;;;4.28;;
19434;SDS011;9853;50.848;4.108;2023-04-25T00:29:43;22.85;;;4.43;;
19434;SDS011;9853;50.848;4.108;2023-04-25T00:31:44;15.40;;;4.20;;
19434;SDS011;9853;50.848;4.108;2023-04-25T00:33:45;18.13;;;4.63;;
19434;SDS011;9853;50.848;4.108;2023-04-25T00:35:46;22.33;;;4.45;;
19434;SDS011;9853;50.848;4.108;2023-04-25T00:37:47;18.90;;;4.13;;
19434;SDS011;9853;50.848;4.108;2023-04-25T00:39:47;19.67;;;3.60;;
19434;SDS011;9853;50.848;4.108;2023-04-25T00:41:48;20.23;;;4.18;;
19434;SDS011;9853;50.848;4.108;2023-04-25T00:43:53;25.58;;;4.07;;
19434;SDS011;9853;50.848;4.108;2023-04-25T00:45:54;23.20;;;4.25;;
19434;SDS011;9853;50.848;4.108;2023-04-25T00:47:58;17.55;;;3.95;;
19434;SDS011;9853;50.848;4.108;2023-04-25T00:49:59;19.00;;;4.22;;
19434;SDS011;9853;50.848;4.108;2023-04-25T00:51:59;23.80;;;4.20;;
19434;SDS011;9853;50.848;4.108;2023-04-25T00:54:01;25.77;;;4.50;;
19434;SDS011;9853;50.848;4.108;2023-04-25T00:56:02;23.02;;;4.95;;
19434;SDS011;9853;50.848;4.108;2023-04-25T00:58:03;18.73;;;4.72;;
19434;SDS011;9853;50.848;4.108;2023-04-25T01:00:05;22.08;;;4.55;;
19434;SDS011;9853;50.848;4.108;2023-04-25T01:02:06;15.82;;;4.03;;
19434;SDS011;9853;50.848;4.108;2023-04-25T01:04:09;21.75;;;4.32;;
19434;SDS011;9853;50.848;4.108;2023-04-25T01:06:10;22.45;;;4.40;;
19434;SDS011;9853;50.848;4.108;2023-04-25T01:08:12;20.27;;;4.60;;
19434;SDS011;9853;50.848;4.108;2023-04-25T01:10:13;21.88;;;4.32;;
19434;SDS011;9853;50.848;4.108;2023-04-25T01:12:15;17.40;;;4.22;;
19434;SDS011;9853;50.848;4.108;2023-04-25T01:14:16;21.73;;;4.57;;
19434;SDS011;9853;50.848;4.108;2023-04-25T01:16:17;23.83;;;3.85;;
19434;SDS011;9853;50.848;4.108;2023-04-25T01:18:18;22.65;;;4.63;;
19434;SDS011;9853;50.848;4.108;2023-04-25T01:20:20;22.70;;;4.30;;
19434;SDS011;9853;50.848;4.108;2023-04-25T01:22:27;21.13;;;4.07;;
19434;SDS011;9853;50.848;4.108;2023-04-25T01:24:28;16.13;;;4.25;;
19434;SDS011;9853;50.848;4.108;2023-04-25T01:26:29;25.42;;;4.57;;
19434;SDS011;9853;50.848;4.108;2023-04-25T01:28:31;27.42;;;5.05;;
19434;SDS011;9853;50.848;4.108;2023-04-25T01:30:35;17.60;;;4.53;;
19434;SDS011;9853;50.848;4.108;2023-04-25T01:32:36;28.27;;;4.15;;
19434;SDS011;9853;50.848;4.108;2023-04-25T01:34:41;18.58;;;4.90;;
19434;SDS011;9853;50.848;4.108;2023-04-25T01:36:42;23.13;;;4.78;;
19434;SDS011;9853;50.848;4.108;2023-04-25T01:38:43;22.02;;;4.88;;
19434;SDS011;9853;50.848;4.108;2023-04-25T01:40:46;24.40;;;5.25;;
19434;SDS011;9853;50.848;4.108;2023-04-25T01:42:49;21.35;;;4.68;;
19434;SDS011;9853;50.848;4.108;2023-04-25T01:44:50;24.30;;;5.25;;
19434;SDS011;9853;50.848;4.108;2023-04-25T01:46:51;20.10;;;4.80;;
19434;SDS011;9853;50.848;4.108;2023-04-25T01:48:52;28.23;;;5.30;;
19434;SDS011;9853;50.848;4.108;2023-04-25T01:50:53;25.52;;;4.78;;
19434;SDS011;9853;50.848;4.108;2023-04-25T01:52:54;18.20;;;4.85;;
19434;SDS011;9853;50.848;4.108;2023-04-25T01:54:56;17.25;;;4.53;;
19434;SDS011;9853;50.848;4.108;2023-04-25T01:56:58;22.17;;;4.90;;
19434;SDS011;9853;50.848;4.108;2023-04-25T01:58:59;23.20;;;5.03;;
19434;SDS011;9853;50.848;4.108;2023-04-25T02:01:12;26.17;;;5.35;;
19434;SDS011;9853;50.848;4.108;2023-04-25T02:03:23;19.95;;;4.47;;
19434;SDS011;9853;50.848;4.108;2023-04-25T02:05:25;18.15;;;4.50;;
19434;SDS011;9853;50.848;4.108;2023-04-25T02:07:26;19.27;;;4.63;;
19434;SDS011;9853;50.848;4.108;2023-04-25T02:09:27;24.55;;;5.05;;
19434;SDS011;9853;50.848;4.108;2023-04-25T02:11:29;23.85;;;4.80;;
19434;SDS011;9853;50.848;4.108;2023-04-25T02:13:51;17.33;;;4.50;;
19434;SDS011;9853;50.848;4.108;2023-04-25T02:16:14;21.98;;;4.55;;
19434;SDS011;9853;50.848;4.108;2023-04-25T02:18:15;23.67;;;4.75;;
19434;SDS011;9853;50.848;4.108;2023-04-25T02:20:17;21.98;;;4.32;;
19434;SDS011;9853;50.848;4.108;2023-04-25T02:22:20;23.98;;;4.55;;
19434;SDS011;9853;50.848;4.108;2023-04-25T02:24:20;25.63;;;4.82;;
19434;SDS011;9853;50.848;4.108;2023-04-25T02:26:21;20.38;;;4.55;;
19434;SDS011;9853;50.848;4.108;2023-04-25T02:28:24;14.77;;;3.92;;
19434;SDS011;9853;50.848;4.108;2023-04-25T02:30:26;19.17;;;4.13;;
19434;SDS011;9853;50.848;4.108;2023-04-25T02:32:26;16.60;;;4.28;;
19434;SDS011;9853;50.848;4.108;2023-04-25T02:34:27;24.63;;;5.05;;
19434;SDS011;9853;50.848;4.108;2023-04-25T02:36:28;22.42;;;4.20;;
19434;SDS011;9853;50.848;4.108;2023-04-25T02:38:32;20.02;;;5.07;;
19434;SDS011;9853;50.848;4.108;2023-04-25T02:40:33;25.23;;;3.95;;
19434;SDS011;9853;50.848;4.108;2023-04-25T02:42:35;24.98;;;4.63;;
19434;SDS011;9853;50.848;4.108;2023-04-25T02:44:35;22.65;;;4.22;;
19434;SDS011;9853;50.848;4.108;2023-04-25T02:46:36;19.45;;;4.10;;
19434;SDS011;9853;50.848;4.108;2023-04-25T02:48:37;23.73;;;4.75;;
19434;SDS011;9853;50.848;4.108;2023-04-25T02:50:38;17.50;;;3.83;;
19434;SDS011;9853;50.848;4.108;2023-04-25T02:52:39;22.02;;;4.53;;
19434;SDS011;9853;50.848;4.108;2023-04-25T02:54:47;31.10;;;5.38;;
19434;SDS011;9853;50.848;4.108;2023-04-25T02:56:47;32.05;;;4.82;;
19434;SDS011;9853;50.848;4.108;2023-04-25T02:58:54;23.50;;;4.80;;
19434;SDS011;9853;50.848;4.108;2023-04-25T03:00:56;26.10;;;3.90;;
19434;SDS011;9853;50.848;4.108;2023-04-25T03:02:56;19.65;;;4.40;;
19434;SDS011;9853;50.848;4.108;2023-04-25T03:04:57;31.52;;;4.78;;
19434;SDS011;9853;50.848;4.108;2023-04-25T03:06:58;19.45;;;4.22;;
19434;SDS011;9853;50.848;4.108;2023-04-25T03:08:59;22.05;;;4.60;;
19434;SDS011;9853;50.848;4.108;2023-04-25T03:11:00;25.67;;;5.43;;
19434;SDS011;9853;50.848;4.108;2023-04-25T03:13:01;22.33;;;4.10;;
19434;SDS011;9853;50.848;4.108;2023-04-25T03:15:02;32.67;;;4.83;;
19434;SDS011;9853;50.848;4.108;2023-04-25T03:17:03;27.63;;;5.20;;
19434;SDS011;9853;50.848;4.108;2023-04-25T03:19:04;25.43;;;4.90;;
19434;SDS011;9853;50.848;4.108;2023-04-25T03:21:06;23.57;;;4.17;;
19434;SDS011;9853;50.848;4.108;2023-04-25T03:23:07;31.00;;;5.43;;
19434;SDS011;9853;50.848;4.108;2023-04-25T03:25:08;23.03;;;4.80;;
19434;SDS011;9853;50.848;4.108;2023-04-25T03:27:08;27.77;;;4.47;;
19434;SDS011;9853;50.848;4.108;2023-04-25T03:29:09;27.33;;;4.53;;
19434;SDS011;9853;50.848;4.108;2023-04-25T03:31:12;29.63;;;4.27;;
19434;SDS011;9853;50.848;4.108;2023-04-25T03:33:13;18.87;;;4.30;;
19434;SDS011;9853;50.848;4.108;2023-04-25T03:35:14;27.15;;;4.30;;
19434;SDS011;9853;50.848;4.108;2023-04-25T03:37:15;21.20;;;4.10;;
19434;SDS011;9853;50.848;4.108;2023-04-25T03:39:15;26.23;;;3.97;;
19434;SDS011;9853;50.848;4.108;2023-04-25T03:41:21;26.50;;;4.20;;
19434;SDS011;9853;50.848;4.108;2023-04-25T03:43:31;28.13;;;5.17;;
19434;SDS011;9853;50.848;4.108;2023-04-25T03:45:37;26.67;;;4.50;;
19434;SDS011;9853;50.848;4.108;2023-04-25T03:47:38;29.53;;;4.30;;
19434;SDS011;9853;50.848;4.108;2023-04-25T03:49:39;32.40;;;5.57;;
19434;SDS011;9853;50.848;4.108;2023-04-25T03:51:40;21.87;;;4.33;;
19434;SDS011;9853;50.848;4.108;2023-04-25T03:53:41;28.27;;;5.23;;
19434;SDS011;9853;50.848;4.108;2023-04-25T03:55:54;26.90;;;4.57;;
19434;SDS011;9853;50.848;4.108;2023-04-25T03:57:55;23.13;;;4.50;;
19434;SDS011;9853;50.848;4.108;2023-04-25T03:59:56;26.27;;;4.30;;
19434;SDS011;9853;50.848;4.108;2023-04-25T04:01:57;24.07;;;4.60;;
19434;SDS011;9853;50.848;4.108;2023-04-25T04:03:58;20.80;;;4.27;;
19434;SDS011;9853;50.848;4.108;2023-04-25T04:06:01;23.07;;;4.30;;
19434;SDS011;9853;50.848;4.108;2023-04-25T04:08:08;25.93;;;4.27;;
19434;SDS011;9853;50.848;4.108;2023-04-25T04:10:11;23.53;;;5.03;;
19434;SDS011;9853;50.848;4.108;2023-04-25T04:12:13;31.83;;;4.72;;
19434;SDS011;9853;50.848;4.108;2023-04-25T04:14:15;28.47;;;4.63;;
19434;SDS011;9853;50.848;4.108;2023-04-25T04:16:19;28.33;;;4.45;;
19434;SDS011;9853;50.848;4.108;2023-04-25T04:18:21;28.83;;;4.53;;
19434;SDS011;9853;50.848;4.108;2023-04-25T04:20:22;17.23;;;4.03;;
19434;SDS011;9853;50.848;4.108;2023-04-25T04:22:23;15.80;;;3.50;;
19434;SDS011;9853;50.848;4.108;2023-04-25T04:24:27;32.15;;;4.60;;
19434;SDS011;9853;50.848;4.108;2023-04-25T04:26:49;23.00;;;4.20;;
19434;SDS011;9853;50.848;4.108;2023-04-25T04:29:07;15.52;;;4.38;;
19434;SDS011;9853;50.848;4.108;2023-04-25T04:31:22;22.83;;;4.22;;
19434;SDS011;9853;50.848;4.108;2023-04-25T04:33:24;30.83;;;5.25;;
19434;SDS011;9853;50.848;4.108;2023-04-25T04:35:30;23.42;;;4.72;;
19434;SDS011;9853;50.848;4.108;2023-04-25T04:37:32;27.60;;;4.57;;
19434;SDS011;9853;50.848;4.108;2023-04-25T04:39:52;30.15;;;4.68;;
19434;SDS011;9853;50.848;4.108;2023-04-25T04:42:13;27.80;;;4.83;;
19434;SDS011;9853;50.848;4.108;2023-04-25T04:44:40;22.20;;;4.10;;
19434;SDS011;9853;50.848;4.108;2023-04-25T04:46:51;19.43;;;4.00;;
19434;SDS011;9853;50.848;4.108;2023-04-25T04:49:10;23.67;;;4.37;;
19434;SDS011;9853;50.848;4.108;2023-04-25T04:51:43;19.10;;;4.20;;
19434;SDS011;9853;50.848;4.108;2023-04-25T04:54:12;21.03;;;3.83;;
19434;SDS011;9853;50.848;4.108;2023-04-25T04:56:48;23.93;;;3.83;;
19434;SDS011;9853;50.848;4.108;2023-04-25T04:59:08;17.40;;;3.67;;
19434;SDS011;9853;50.848;4.108;2023-04-25T05:01:29;16.00;;;3.60;;
19434;SDS011;9853;50.848;4.108;2023-04-25T05:03:42;21.20;;;3.83;;
19434;SDS011;9853;50.848;4.108;2023-04-25T05:06:06;17.00;;;3.97;;
19434;SDS011;9853;50.848;4.108;2023-04-25T05:08:32;16.97;;;3.73;;
19434;SDS011;9853;50.848;4.108;2023-04-25T05:10:57;13.60;;;2.90;;
19434;SDS011;9853;50.848;4.108;2023-04-25T05:13:21;19.10;;;3.70;;
19434;SDS011;9853;50.848;4.108;2023-04-25T05:15:27;17.93;;;3.77;;
19434;SDS011;9853;50.848;4.108;2023-04-25T05:17:43;20.77;;;3.37;;
19434;SDS011;9853;50.848;4.108;2023-04-25T05:19:55;20.73;;;3.33;;
19434;SDS011;9853;50.848;4.108;2023-04-25T05:22:08;16.50;;;3.20;;
19434;SDS011;9853;50.848;4.108;2023-04-25T05:24:47;12.80;;;3.20;;
19434;SDS011;9853;50.848;4.108;2023-04-25T05:27:17;19.33;;;3.03;;
19434;SDS011;9853;50.848;4.108;2023-04-25T05:29:32;14.17;;;3.33;;
19434;SDS011;9853;50.848;4.108;2023-04-25T05:31:38;17.40;;;3.40;;
19434;SDS011;9853;50.848;4.108;2023-04-25T05:33:44;16.73;;;3.07;;
19434;SDS011;9853;50.848;4.108;2023-04-25T05:43:32;13.33;;;3.70;;
19434;SDS011;9853;50.848;4.108;2023-04-25T05:45:55;15.70;;;3.30;;
19434;SDS011;9853;50.848;4.108;2023-04-25T05:48:14;21.27;;;3.50;;
19434;SDS011;9853;50.848;4.108;2023-04-25T05:50:24;14.90;;;3.53;;
19434;SDS011;9853;50.848;4.108;2023-04-25T05:52:38;15.77;;;3.50;;
19434;SDS011;9853;50.848;4.108;2023-04-25T05:54:51;25.10;;;4.07;;
19434;SDS011;9853;50.848;4.108;2023-04-25T05:56:52;15.53;;;3.20;;
19434;SDS011;9853;50.848;4.108;2023-04-25T05:58:56;17.83;;;3.87;;
19434;SDS011;9853;50.848;4.108;2023-04-25T06:00:58;25.60;;;3.73;;
19434;SDS011;9853;50.848;4.108;2023-04-25T06:02:59;24.10;;;6.43;;
19434;SDS011;9853;50.848;4.108;2023-04-25T06:05:01;23.20;;;5.17;;
19434;SDS011;9853;50.848;4.108;2023-04-25T06:07:03;19.07;;;3.30;;
19434;SDS011;9853;50.848;4.108;2023-04-25T06:09:04;20.63;;;3.70;;
19434;SDS011;9853;50.848;4.108;2023-04-25T06:11:05;15.47;;;3.33;;
19434;SDS011;9853;50.848;4.108;2023-04-25T06:13:14;20.17;;;5.23;;
19434;SDS011;9853;50.848;4.108;2023-04-25T06:15:23;14.97;;;3.30;;
19434;SDS011;9853;50.848;4.108;2023-04-25T06:17:24;21.80;;;3.53;;
19434;SDS011;9853;50.848;4.108;2023-04-25T06:19:28;21.17;;;3.00;;
19434;SDS011;9853;50.848;4.108;2023-04-25T06:21:29;15.60;;;3.37;;
19434;SDS011;9853;50.848;4.108;2023-04-25T06:23:33;19.90;;;4.27;;
19434;SDS011;9853;50.848;4.108;2023-04-25T06:25:37;14.87;;;3.53;;
19434;SDS011;9853;50.848;4.108;2023-04-25T06:27:41;22.13;;;3.83;;
19434;SDS011;9853;50.848;4.108;2023-04-25T06:29:42;17.93;;;3.70;;
19434;SDS011;9853;50.848;4.108;2023-04-25T06:31:43;22.07;;;3.70;;
19434;SDS011;9853;50.848;4.108;2023-04-25T06:33:54;18.80;;;3.77;;
19434;SDS011;9853;50.848;4.108;2023-04-25T06:35:59;17.03;;;3.90;;
19434;SDS011;9853;50.848;4.108;2023-04-25T06:38:14;21.50;;;4.03;;
19434;SDS011;9853;50.848;4.108;2023-04-25T06:40:19;17.37;;;3.80;;
19434;SDS011;9853;50.848;4.108;2023-04-25T06:42:20;14.07;;;3.20;;
19434;SDS011;9853;50.848;4.108;2023-04-25T06:44:26;23.93;;;3.77;;
19434;SDS011;9853;50.848;4.108;2023-04-25T06:46:46;15.03;;;3.53;;
19434;SDS011;9853;50.848;4.108;2023-04-25T06:48:48;17.60;;;3.23;;
19434;SDS011;9853;50.848;4.108;2023-04-25T06:50:50;12.17;;;3.40;;
19434;SDS011;9853;50.848;4.108;2023-04-25T06:52:53;22.90;;;3.20;;
19434;SDS011;9853;50.848;4.108;2023-04-25T06:54:55;15.00;;;3.27;;
19434;SDS011;9853;50.848;4.108;2023-04-25T06:57:23;24.50;;;3.47;;
19434;SDS011;9853;50.848;4.108;2023-04-25T06:59:35;25.87;;;4.57;;
19434;SDS011;9853;50.848;4.108;2023-04-25T07:02:02;23.03;;;4.07;;
19434;SDS011;9853;50.848;4.108;2023-04-25T07:04:09;18.20;;;3.10;;
19434;SDS011;9853;50.848;4.108;2023-04-25T07:06:15;13.13;;;4.97;;
19434;SDS011;9853;50.848;4.108;2023-04-25T07:08:16;19.13;;;4.83;;
19434;SDS011;9853;50.848;4.108;2023-04-25T07:10:17;16.03;;;2.90;;
19434;SDS011;9853;50.848;4.108;2023-04-25T07:12:34;15.93;;;2.70;;
19434;SDS011;9853;50.848;4.108;2023-04-25T07:14:35;20.10;;;2.87;;
19434;SDS011;9853;50.848;4.108;2023-04-25T07:16:39;14.37;;;3.00;;
19434;SDS011;9853;50.848;4.108;2023-04-25T07:19:00;13.37;;;3.00;;
19434;SDS011;9853;50.848;4.108;2023-04-25T07:21:10;16.40;;;2.90;;
19434;SDS011;9853;50.848;4.108;2023-04-25T07:23:32;18.87;;;3.17;;
19434;SDS011;9853;50.848;4.108;2023-04-25T07:26:04;15.67;;;2.70;;
19434;SDS011;9853;50.848;4.108;2023-04-25T07:28:08;13.13;;;1.93;;
19434;SDS011;9853;50.848;4.108;2023-04-25T07:30:10;17.90;;;2.60;;
19434;SDS011;9853;50.848;4.108;2023-04-25T07:32:16;15.43;;;2.20;;
19434;SDS011;9853;50.848;4.108;2023-04-25T07:34:32;14.87;;;2.50;;
19434;SDS011;9853;50.848;4.108;2023-04-25T07:36:37;20.47;;;2.67;;
19434;SDS011;9853;50.848;4.108;2023-04-25T07:38:46;17.80;;;2.30;;
19434;SDS011;9853;50.848;4.108;2023-04-25T07:40:54;13.93;;;2.70;;
19434;SDS011;9853;50.848;4.108;2023-04-25T07:45:29;16.47;;;2.47;;
19434;SDS011;9853;50.848;4.108;2023-04-25T07:47:34;14.03;;;1.93;;
19434;SDS011;9853;50.848;4.108;2023-04-25T07:49:36;16.77;;;2.63;;
19434;SDS011;9853;50.848;4.108;2023-04-25T07:51:37;12.90;;;1.90;;
19434;SDS011;9853;50.848;4.108;2023-04-25T07:53:52;12.52;;;2.25;;
19434;SDS011;9853;50.848;4.108;2023-04-25T07:55:54;15.97;;;2.73;;
19434;SDS011;9853;50.848;4.108;2023-04-25T07:58:25;16.00;;;2.40;;
19434;SDS011;9853;50.848;4.108;2023-04-25T08:00:52;16.60;;;2.67;;
19434;SDS011;9853;50.848;4.108;2023-04-25T08:03:09;13.32;;;2.30;;
19434;SDS011;9853;50.848;4.108;2023-04-25T08:05:29;14.00;;;2.50;;
19434;SDS011;9853;50.848;4.108;2023-04-25T08:07:40;13.98;;;2.28;;
19434;SDS011;9853;50.848;4.108;2023-04-25T08:09:46;15.07;;;2.83;;
19434;SDS011;9853;50.848;4.108;2023-04-25T08:12:09;19.77;;;4.40;;
19434;SDS011;9853;50.848;4.108;2023-04-25T08:14:23;13.35;;;2.63;;
19434;SDS011;9853;50.848;4.108;2023-04-25T08:16:45;11.88;;;2.33;;
19434;SDS011;9853;50.848;4.108;2023-04-25T08:19:06;15.85;;;2.33;;
19434;SDS011;9853;50.848;4.108;2023-04-25T08:21:07;13.47;;;2.37;;
19434;SDS011;9853;50.848;4.108;2023-04-25T08:23:28;14.63;;;2.13;;
19434;SDS011;9853;50.848;4.108;2023-04-25T08:25:55;12.75;;;2.08;;
19434;SDS011;9853;50.848;4.108;2023-04-25T08:31:33;11.15;;;1.90;;
19434;SDS011;9853;50.848;4.108;2023-04-25T08:41:55;6.82;;;1.48;;
19434;SDS011;9853;50.848;4.108;2023-04-25T08:44:06;9.85;;;1.70;;
19434;SDS011;9853;50.848;4.108;2023-04-25T08:46:26;12.90;;;1.98;;
19434;SDS011;9853;50.848;4.108;2023-04-25T08:52:43;4.65;;;1.35;;
19434;SDS011;9853;50.848;4.108;2023-04-25T08:58:16;8.43;;;1.52;;
19434;SDS011;9853;50.848;4.108;2023-04-25T09:00:36;11.05;;;1.50;;
19434;SDS011;9853;50.848;4.108;2023-04-25T09:04:02;9.23;;;1.55;;
19434;SDS011;9853;50.848;4.108;2023-04-25T10:30:21;9.35;;;1.58;;
19434;SDS011;9853;50.848;4.108;2023-04-25T10:42:14;7.93;;;1.10;;
19434;SDS011;9853;50.848;4.108;2023-04-25T10:50:16;10.33;;;1.00;;
19434;SDS011;9853;50.848;4.108;2023-04-25T10:57:43;6.13;;;1.10;;
19434;SDS011;9853;50.848;4.108;2023-04-25T11:06:29;3.67;;;0.80;;
19434;SDS011;9853;50.848;4.108;2023-04-25T11:09:24;5.25;;;1.13;;
19434;SDS011;9853;50.848;4.108;2023-04-25T11:11:41;6.63;;;1.20;;
19434;SDS011;9853;50.848;4.108;2023-04-25T11:33:14;2.28;;;0.68;;
19434;SDS011;9853;50.848;4.108;2023-04-25T11:35:46;5.45;;;0.73;;
19434;SDS011;9853;50.848;4.108;2023-04-25T11:37:53;5.53;;;0.90;;
19434;SDS011;9853;50.848;4.108;2023-04-25T11:40:15;6.82;;;0.88;;
19434;SDS011;9853;50.848;4.108;2023-04-25T12:18:51;5.28;;;0.73;;
19434;SDS011;9853;50.848;4.108;2023-04-25T12:20:59;7.32;;;0.93;;
19434;SDS011;9853;50.848;4.108;2023-04-25T12:27:25;6.38;;;0.93;;
19434;SDS011;9853;50.848;4.108;2023-04-25T12:35:14;5.93;;;1.00;;
19434;SDS011;9853;50.848;4.108;2023-04-25T12:37:18;8.27;;;1.30;;
19434;SDS011;9853;50.848;4.108;2023-04-25T12:39:24;5.07;;;1.33;;
19434;SDS011;9853;50.848;4.108;2023-04-25T12:44:40;5.18;;;1.25;;
19434;SDS011;9853;50.848;4.108;2023-04-25T12:47:02;5.82;;;1.30;;
19434;SDS011;9853;50.848;4.108;2023-04-25T12:49:32;9.43;;;1.23;;
19434;SDS011;9853;50.848;4.108;2023-04-25T12:51:42;5.80;;;0.93;;
19434;SDS011;9853;50.848;4.108;2023-04-25T12:54:16;7.27;;;1.47;;
19434;SDS011;9853;50.848;4.108;2023-04-25T13:06:11;8.02;;;1.75;;
19434;SDS011;9853;50.848;4.108;2023-04-25T13:08:40;6.85;;;1.20;;
19434;SDS011;9853;50.848;4.108;2023-04-25T13:14:21;7.95;;;2.10;;
19434;SDS011;9853;50.848;4.108;2023-04-25T13:28:10;4.95;;;1.30;;
19434;SDS011;9853;50.848;4.108;2023-04-25T13:30:46;6.60;;;1.35;;
19434;SDS011;9853;50.848;4.108;2023-04-25T13:33:07;4.30;;;1.23;;
19434;SDS011;9853;50.848;4.108;2023-04-25T13:37:58;5.55;;;1.48;;
19434;SDS011;9853;50.848;4.108;2023-04-25T13:40:13;6.20;;;1.52;;
19434;SDS011;9853;50.848;4.108;2023-04-25T13:45:49;6.55;;;1.10;;
19434;SDS011;9853;50.848;4.108;2023-04-25T13:47:59;5.95;;;1.20;;
19434;SDS011;9853;50.848;4.108;2023-04-25T13:50:33;5.78;;;0.93;;
19434;SDS011;9853;50.848;4.108;2023-04-25T13:52:54;4.10;;;1.05;;
19434;SDS011;9853;50.848;4.108;2023-04-25T13:58:23;5.65;;;1.35;;
19434;SDS011;9853;50.848;4.108;2023-04-25T14:00:34;9.70;;;1.40;;
19434;SDS011;9853;50.848;4.108;2023-04-25T14:02:48;5.18;;;1.20;;
19434;SDS011;9853;50.848;4.108;2023-04-25T14:04:52;4.55;;;1.10;;
19434;SDS011;9853;50.848;4.108;2023-04-25T14:06:56;4.38;;;0.80;;
19434;SDS011;9853;50.848;4.108;2023-04-25T14:09:25;8.65;;;1.58;;
19434;SDS011;9853;50.848;4.108;2023-04-25T14:11:27;7.22;;;1.20;;
19434;SDS011;9853;50.848;4.108;2023-04-25T14:13:28;8.50;;;1.42;;
19434;SDS011;9853;50.848;4.108;2023-04-25T14:15:29;7.82;;;1.10;;
19434;SDS011;9853;50.848;4.108;2023-04-25T14:17:36;6.97;;;1.10;;
19434;SDS011;9853;50.848;4.108;2023-04-25T14:19:40;5.78;;;1.20;;
19434;SDS011;9853;50.848;4.108;2023-04-25T14:21:50;5.72;;;1.30;;
19434;SDS011;9853;50.848;4.108;2023-04-25T14:23:53;9.02;;;1.55;;
19434;SDS011;9853;50.848;4.108;2023-04-25T14:26:15;4.38;;;1.23;;
19434;SDS011;9853;50.848;4.108;2023-04-25T14:28:23;8.57;;;1.10;;
19434;SDS011;9853;50.848;4.108;2023-04-25T14:30:32;10.43;;;1.20;;
19434;SDS011;9853;50.848;4.108;2023-04-25T14:33:38;5.40;;;1.40;;
19434;SDS011;9853;50.848;4.108;2023-04-25T14:38:23;7.38;;;1.40;;
19434;SDS011;9853;50.848;4.108;2023-04-25T14:40:37;9.73;;;1.10;;
19434;SDS011;9853;50.848;4.108;2023-04-25T14:42:43;5.80;;;1.13;;
19434;SDS011;9853;50.848;4.108;2023-04-25T14:44:50;7.55;;;1.38;;
19434;SDS011;9853;50.848;4.108;2023-04-25T14:47:24;5.68;;;1.40;;
19434;SDS011;9853;50.848;4.108;2023-04-25T14:49:33;6.32;;;1.10;;
19434;SDS011;9853;50.848;4.108;2023-04-25T14:51:34;8.48;;;1.17;;
19434;SDS011;9853;50.848;4.108;2023-04-25T14:53:37;5.22;;;1.00;;
19434;SDS011;9853;50.848;4.108;2023-04-25T14:55:45;7.93;;;1.13;;
19434;SDS011;9853;50.848;4.108;2023-04-25T14:57:45;11.05;;;1.17;;
19434;SDS011;9853;50.848;4.108;2023-04-25T14:59:55;10.45;;;1.20;;
19434;SDS011;9853;50.848;4.108;2023-04-25T15:01:55;4.25;;;1.00;;
19434;SDS011;9853;50.848;4.108;2023-04-25T15:03:57;9.98;;;1.10;;
19434;SDS011;9853;50.848;4.108;2023-04-25T15:05:57;7.13;;;1.35;;
19434;SDS011;9853;50.848;4.108;2023-04-25T15:07:58;8.25;;;1.40;;
19434;SDS011;9853;50.848;4.108;2023-04-25T15:10:08;11.02;;;1.45;;
19434;SDS011;9853;50.848;4.108;2023-04-25T15:12:15;8.65;;;1.30;;
19434;SDS011;9853;50.848;4.108;2023-04-25T15:14:21;5.30;;;1.20;;
19434;SDS011;9853;50.848;4.108;2023-04-25T15:16:30;9.90;;;1.65;;
19434;SDS011;9853;50.848;4.108;2023-04-25T15:18:39;4.05;;;1.20;;
19434;SDS011;9853;50.848;4.108;2023-04-25T15:20:39;7.40;;;1.20;;
19434;SDS011;9853;50.848;4.108;2023-04-25T15:25:05;5.30;;;1.02;;
19434;SDS011;9853;50.848;4.108;2023-04-25T15:27:18;8.45;;;1.58;;
19434;SDS011;9853;50.848;4.108;2023-04-25T15:29:18;10.60;;;1.40;;
19434;SDS011;9853;50.848;4.108;2023-04-25T15:31:49;8.20;;;1.55;;
19434;SDS011;9853;50.848;4.108;2023-04-25T15:36:27;9.15;;;1.20;;
19434;SDS011;9853;50.848;4.108;2023-04-25T15:38:27;8.02;;;1.17;;
19434;SDS011;9853;50.848;4.108;2023-04-25T15:40:38;9.32;;;1.10;;
19434;SDS011;9853;50.848;4.108;2023-04-25T15:42:46;6.53;;;1.02;;
19434;SDS011;9853;50.848;4.108;2023-04-25T15:44:50;7.53;;;0.85;;
19434;SDS011;9853;50.848;4.108;2023-04-25T15:46:59;10.50;;;1.02;;
19434;SDS011;9853;50.848;4.108;2023-04-25T15:49:08;2.67;;;0.63;;
19434;SDS011;9853;50.848;4.108;2023-04-25T15:51:25;6.40;;;1.27;;
19434;SDS011;9853;50.848;4.108;2023-04-25T15:53:40;5.22;;;1.02;;
19434;SDS011;9853;50.848;4.108;2023-04-25T15:58:36;4.10;;;0.90;;
19434;SDS011;9853;50.848;4.108;2023-04-25T16:03:56;5.47;;;0.80;;
19434;SDS011;9853;50.848;4.108;2023-04-25T16:05:58;5.60;;;1.00;;
19434;SDS011;9853;50.848;4.108;2023-04-25T16:08:02;3.30;;;0.65;;
19434;SDS011;9853;50.848;4.108;2023-04-25T16:10:08;7.30;;;0.93;;
19434;SDS011;9853;50.848;4.108;2023-04-25T16:12:28;5.72;;;1.05;;
19434;SDS011;9853;50.848;4.108;2023-04-25T16:14:32;10.65;;;1.20;;
19434;SDS011;9853;50.848;4.108;2023-04-25T16:16:33;12.18;;;1.20;;
19434;SDS011;9853;50.848;4.108;2023-04-25T16:18:34;7.53;;;1.20;;
19434;SDS011;9853;50.848;4.108;2023-04-25T16:20:35;4.38;;;0.98;;
19434;SDS011;9853;50.848;4.108;2023-04-25T16:22:37;6.32;;;1.02;;
19434;SDS011;9853;50.848;4.108;2023-04-25T16:24:46;4.10;;;1.20;;
19434;SDS011;9853;50.848;4.108;2023-04-25T16:26:47;8.90;;;1.20;;
19434;SDS011;9853;50.848;4.108;2023-04-25T16:28:54;6.78;;;1.23;;
19434;SDS011;9853;50.848;4.108;2023-04-25T16:31:01;5.35;;;1.23;;
19434;SDS011;9853;50.848;4.108;2023-04-25T16:33:29;10.88;;;1.67;;
19434;SDS011;9853;50.848;4.108;2023-04-25T16:35:36;13.23;;;1.80;;
19434;SDS011;9853;50.848;4.108;2023-04-25T16:37:40;5.95;;;1.17;;
19434;SDS011;9853;50.848;4.108;2023-04-25T16:39:46;7.10;;;1.40;;
19434;SDS011;9853;50.848;4.108;2023-04-25T16:41:47;6.85;;;1.40;;
19434;SDS011;9853;50.848;4.108;2023-04-25T16:43:52;7.38;;;1.38;;
19434;SDS011;9853;50.848;4.108;2023-04-25T16:45:53;6.38;;;1.42;;
19434;SDS011;9853;50.848;4.108;2023-04-25T16:47:55;6.57;;;1.20;;
19434;SDS011;9853;50.848;4.108;2023-04-25T16:49:55;4.80;;;1.10;;
19434;SDS011;9853;50.848;4.108;2023-04-25T16:51:59;6.93;;;1.13;;
19434;SDS011;9853;50.848;4.108;2023-04-25T16:53:59;12.80;;;1.50;;
19434;SDS011;9853;50.848;4.108;2023-04-25T16:56:00;9.80;;;1.40;;
19434;SDS011;9853;50.848;4.108;2023-04-25T16:58:01;6.13;;;1.20;;
19434;SDS011;9853;50.848;4.108;2023-04-25T17:00:05;3.83;;;1.00;;
19434;SDS011;9853;50.848;4.108;2023-04-25T17:02:09;8.87;;;1.40;;
19434;SDS011;9853;50.848;4.108;2023-04-25T17:04:11;8.47;;;1.30;;
19434;SDS011;9853;50.848;4.108;2023-04-25T17:06:12;7.07;;;1.43;;
19434;SDS011;9853;50.848;4.108;2023-04-25T17:08:14;9.17;;;1.47;;
19434;SDS011;9853;50.848;4.108;2023-04-25T17:10:15;8.63;;;1.37;;
19434;SDS011;9853;50.848;4.108;2023-04-25T17:12:17;10.93;;;1.20;;
19434;SDS011;9853;50.848;4.108;2023-04-25T17:14:19;6.90;;;1.07;;